パリ/シャルル・ド・ゴール の空港の天気 - METARとTAF

シャルル・ド・ゴール国際空港(パリ) ( LFPG / CDG ) - フランス Paris
飛行場実況気象(Metar)
観測時間01/23 02:00 CET (01/23 01:00 UTC)
風向・風速南西 5m/s
視程10km以上
天気現象
なし
気温5℃
湿度81%
気圧999hPa
METARLFPG 230100Z 22009KT CAVOK 05/02 Q0999 NOSIG
過去の天気等 Google飛行場航空写真 Wunderground天気予報

過去48時間のMETAR

飛行場予報(TAF)
発表時間: 1/23 00:00 CET (1/22 23:00 UTC)
予報対象時間: 23日1時 CET ~ 24日7時 CET
風向・風速南西 5m/s
視程10km以上
なし
23日4時 CET ~ 23日6時 CET に徐々に
全天の8割程度の雲 雲底高度 210m
23日5時 CET ~ 23日9時 CET に一時的に
視程3000m
天気現象もや
全天の8割程度の雲 雲底高度 120m
23日9時 CET ~ 23日11時 CET に徐々に
風向・風速南東 5m/s
全天の8割程度の雲 雲底高度 300m
23日10時 CET ~ 23日17時 CET に一時的に
視程3000m
天気現象雪雨
全天の8割程度の雲 雲底高度 210m
23日14時 CET ~ 23日16時 CET に徐々に
風向・風速北北西 5m/s
23日17時 CET ~ 23日19時 CET に一時的に
風向・風速北北西 8m/s 瞬間風速 13m/s
23日19時 CET ~ 23日20時 CET に徐々に
全天の8割程度の雲 雲底高度 610m
23日23時 CET ~ 24日1時 CET に徐々に
風向・風速西 3m/s
視程10km以上
なし
TAF LFPG 222300Z 2300/2406 23010KT CAVOK TX05/2300Z TNM00/2324Z
BECMG 2303/2305 BKN007
TEMPO 2304/2308 3000 BR BKN004
BECMG 2308/2310 13010KT BKN010
TEMPO 2309/2316 3000 SNRA BKN007
BECMG 2313/2315 33010KT
TEMPO 2316/2318 34015G25KT
BECMG 2318/2319 BKN020
BECMG 2322/2324 27005KT CAVOK